Time;durP1;ratioP1;P1;durP2;ratioP2;P2;SDS_P1;SDS_P2;PMS_P1;PMS_P2;Temp;Humidity;BMP_temperature;BMP_pressure;BME280_temperature;BME280_humidity;BME280_pressure;Samples;Min_cycle;Max_cycle;Signal;HPM_P1;HPM_P2
2023/05/13 06:32:42;;;;;;;17.97;11.50;;;;;;;;;;5136234;27;20271;-80
2023/05/13 06:40:22;;;;;;;19.17;12.43;;;9.20;99.90;;;;;;5094191;28;20587;-80
2023/05/13 06:47:52;;;;;;;16.10;11.47;;;9.30;99.90;;;;;;5135740;27;20277;-79
2023/05/13 06:57:56;;;;;;;15.70;11.90;;;;;;;;;;5138895;27;20281;-79
2023/05/13 07:05:37;;;;;;;18.20;10.97;;;;;;;;;;5136054;27;20283;-80
2023/05/13 07:11:38;;;;;;;14.63;11.20;;;9.60;99.90;;;;;;5135678;27;20271;-79
2023/05/13 07:20:15;;;;;;;15.20;11.00;;;;;;;;;;5137242;27;20293;-79
2023/05/13 07:36:38;;;;;;;18.73;13.30;;;9.50;99.90;;;;;;5135829;27;20280;-78
2023/05/13 07:48:14;;;;;;;15.03;11.47;;;;;;;;;;5135784;27;20272;-79
2023/05/13 07:56:46;;;;;;;16.83;12.33;;;;;;;;;;5073368;28;20593;-79
2023/05/13 08:03:11;;;;;;;24.53;15.93;;;9.80;99.90;;;;;;5134604;27;20267;-79
2023/05/13 08:09:36;;;;;;;17.10;11.80;;;;;;;;;;5096193;27;20374;-80
2023/05/13 08:16:39;;;;;;;17.40;11.17;;;;;;;;;;5136437;27;20282;-80
2023/05/13 08:22:49;;;;;;;18.40;12.90;;;;;;;;;;5116267;27;20402;-80
2023/05/13 08:28:20;;;;;;;16.87;11.83;;;9.50;99.90;;;;;;5137378;27;20314;-80
2023/05/13 08:34:55;;;;;;;25.33;16.67;;;10.10;99.90;;;;;;5137675;27;20282;-80
2023/05/13 08:41:06;;;;;;;14.93;9.97;;;10.10;99.90;;;;;;5149224;27;20272;-80
2023/05/13 08:48:27;;;;;;;13.73;9.50;;;;;;;;;;5076611;28;20535;-80
2023/05/13 08:58:24;;;;;;;21.73;15.40;;;10.00;99.90;;;;;;5137341;27;20267;-80
2023/05/13 09:07:17;;;;;;;12.40;9.33;;;9.80;99.90;;;;;;5137465;27;20744;-80
2023/05/13 09:15:14;;;;;;;10.80;8.00;;;9.90;99.90;;;;;;5136635;27;20752;-80
2023/05/13 09:21:56;;;;;;;12.13;9.30;;;;;;;;;;5136947;27;20271;-79
2023/05/13 09:26:57;;;;;;;13.67;10.00;;;10.10;99.90;;;;;;5136617;27;20273;-80
2023/05/13 09:31:35;;;;;;;17.03;10.27;;;;;;;;;;5157539;27;20270;-80
2023/05/13 09:36:39;;;;;;;13.80;9.77;;;;;;;;;;5137240;27;20275;-80
2023/05/13 09:41:12;;;;;;;13.53;9.60;;;;;;;;;;5136841;27;20275;-82
2023/05/13 09:46:09;;;;;;;12.87;9.70;;;;;;;;;;5136511;27;20289;-80
2023/05/13 09:51:31;;;;;;;11.30;9.03;;;;;;;;;;5115895;27;20268;-79
2023/05/13 09:56:09;;;;;;;12.17;9.93;;;10.10;99.90;;;;;;5136547;27;20767;-80
2023/05/13 10:00:42;;;;;;;14.67;10.43;;;;;;;;;;5135327;27;20271;-80
2023/05/13 10:04:40;;;;;;;12.70;9.07;;;10.50;99.90;;;;;;5136642;27;20267;-80
2023/05/13 10:09:13;;;;;;;10.03;8.50;;;10.50;99.90;;;;;;5011934;28;20560;-80
2023/05/13 10:14:15;;;;;;;11.57;9.23;;;10.40;99.90;;;;;;5137175;27;20275;-80
2023/05/13 10:19:08;;;;;;;11.10;8.40;;;10.40;99.90;;;;;;5136469;27;20294;-80
2023/05/13 10:23:45;;;;;;;12.40;8.63;;;10.50;99.90;;;;;;5136217;27;20327;-80
2023/05/13 10:27:56;;;;;;;11.30;7.90;;;10.70;99.90;;;;;;5115831;27;20463;-80
2023/05/13 10:32:42;;;;;;;10.80;8.30;;;;;;;;;;5136711;27;20271;-80
2023/05/13 10:38:10;;;;;;;10.60;8.80;;;10.60;99.90;;;;;;5136367;27;20271;-80
2023/05/13 10:42:41;;;;;;;12.50;9.27;;;10.60;99.90;;;;;;5136190;27;20282;-80
2023/05/13 10:48:12;;;;;;;12.17;9.57;;;10.60;99.90;;;;;;5136521;27;20458;-80
2023/05/13 10:54:21;;;;;;;12.00;9.17;;;11.00;99.90;;;;;;5136471;27;20267;-79
2023/05/13 11:00:34;;;;;;;19.27;8.43;;;10.60;99.90;;;;;;5136576;27;20293;-80
2023/05/13 11:06:13;;;;;;;12.17;9.00;;;10.70;99.90;;;;;;5137881;27;20264;-80
2023/05/13 11:10:54;;;;;;;13.50;9.30;;;10.50;99.90;;;;;;5137225;27;20273;-80
2023/05/13 11:17:00;;;;;;;12.27;9.43;;;11.20;99.90;;;;;;5116599;27;20283;-80
2023/05/13 11:22:55;;;;;;;12.60;9.60;;;;;;;;;;5157036;27;20274;-79
2023/05/13 11:29:14;;;;;;;11.50;8.93;;;10.20;99.90;;;;;;5137426;27;20283;-79
2023/05/13 11:34:52;;;;;;;15.90;10.63;;;;;;;;;;5137673;27;20278;-80
2023/05/13 11:40:48;;;;;;;14.43;10.37;;;;;;;;;;5138178;27;20271;-80
2023/05/13 11:46:04;;;;;;;13.20;9.50;;;;;;;;;;5137765;27;20274;-80
2023/05/13 11:50:29;;;;;;;13.97;9.70;;;10.40;99.90;;;;;;5138152;27;20291;-80
2023/05/13 11:55:26;;;;;;;12.00;8.93;;;10.40;99.90;;;;;;5136802;27;20745;-80
2023/05/13 12:08:26;;;;;;;15.47;11.10;;;;;;;;;;5137507;27;20271;-82
2023/05/13 12:14:49;;;;;;;15.23;10.33;;;10.30;99.90;;;;;;5136377;27;20275;-80
2023/05/13 12:20:23;;;;;;;14.97;10.33;;;;;;;;;;5075498;28;20571;-80
2023/05/13 12:25:33;;;;;;;14.37;10.00;;;10.40;99.90;;;;;;5158188;27;20277;-80
2023/05/13 12:30:16;;;;;;;15.63;10.53;;;;;;;;;;5136047;27;20287;-80
2023/05/13 12:35:12;;;;;;;16.33;11.87;;;10.20;99.90;;;;;;5136904;27;20275;-79
2023/05/13 12:40:11;;;;;;;11.97;9.70;;;10.50;99.90;;;;;;5139057;27;20298;-80
2023/05/13 12:44:01;;;;;;;14.60;10.47;;;;;;;;;;5137649;27;20283;-79
2023/05/13 12:48:08;;;;;;;14.30;9.07;;;10.90;99.90;;;;;;5178836;27;20359;-80
2023/05/13 12:52:36;;;;;;;13.67;10.63;;;10.80;99.90;;;;;;5115976;27;20539;-80
2023/05/13 12:58:50;;;;;;;13.33;11.03;;;10.40;99.90;;;;;;5135313;27;20291;-79
2023/05/13 13:03:29;;;;;;;14.03;10.77;;;10.90;99.90;;;;;;5141622;27;20546;-82
2023/05/13 13:08:41;;;;;;;16.40;11.10;;;10.80;99.90;;;;;;5140844;27;20794;-82
2023/05/13 13:12:44;;;;;;;16.47;10.40;;;10.70;99.90;;;;;;5141298;27;20278;-82
2023/05/13 13:16:40;;;;;;;15.37;10.37;;;10.90;99.90;;;;;;5141159;27;20278;-83
2023/05/13 13:19:06;;;;;;;13.90;9.03;;;;;;;;;;5137520;28;20621;-82
2023/05/13 13:21:32;;;;;;;13.60;9.40;;;11.20;99.90;;;;;;5134220;28;20187;-82
2023/05/13 13:24:44;;;;;;;10.53;8.57;;;11.10;99.90;;;;;;5135946;27;20268;-82
2023/05/13 13:29:33;;;;;;;10.27;8.03;;;11.20;99.90;;;;;;5134839;27;20301;-80
2023/05/13 13:34:53;;;;;;;12.00;7.30;;;10.80;99.90;;;;;;5135708;27;20271;-79
2023/05/13 13:39:18;;;;;;;8.17;6.60;;;11.20;99.90;;;;;;5136071;27;20283;-79
2023/05/13 13:43:05;;;;;;;9.60;7.00;;;11.30;99.90;;;;;;5135826;27;20273;-86
2023/05/13 13:47:06;;;;;;;10.27;7.73;;;;;;;;;;5115672;27;20276;-82
2023/05/13 13:51:35;;;;;;;10.97;8.13;;;;;;;;;;5136062;27;20267;-81
2023/05/13 13:55:57;;;;;;;10.80;8.20;;;11.30;99.90;;;;;;5135615;27;20275;-81
2023/05/13 13:59:38;;;;;;;11.30;7.90;;;11.50;99.90;;;;;;5135754;27;20290;-80
2023/05/13 14:02:04;;;;;;;9.53;7.83;;;11.50;99.90;;;;;;5134094;28;20269;-81
2023/05/13 14:04:32;;;;;;;11.30;7.60;;;11.50;99.90;;;;;;5136429;27;20174;-83
2023/05/13 14:07:54;;;;;;;9.50;7.27;;;;;;;;;;5136730;27;20271;-83
2023/05/13 14:13:28;;;;;;;8.10;6.40;;;11.20;99.90;;;;;;5135842;27;20286;-80
2023/05/13 14:21:19;;;;;;;7.53;6.50;;;11.10;99.90;;;;;;5134540;27;20274;-79
2023/05/13 14:27:04;;;;;;;8.47;6.97;;;10.60;99.90;;;;;;5114860;27;20548;-79
2023/05/13 14:32:10;;;;;;;7.60;6.17;;;11.10;99.90;;;;;;5136438;27;20271;-79
2023/05/13 14:36:25;;;;;;;9.20;6.40;;;10.80;99.90;;;;;;5136066;27;20268;-80
2023/05/13 14:39:57;;;;;;;8.23;6.87;;;;;;;;;;5135146;27;20764;-79
2023/05/13 14:43:49;;;;;;;9.97;6.87;;;11.00;99.90;;;;;;5135150;27;20278;-80
2023/05/13 14:48:21;;;;;;;7.63;6.77;;;11.10;99.90;;;;;;5134645;27;20285;-79
